Time;durP1;ratioP1;P1;durP2;ratioP2;P2;SDS_P1;SDS_P2;PMS_P1;PMS_P2;Temp;Humidity;BMP_temperature;BMP_pressure;BME280_temperature;BME280_humidity;BME280_pressure;Samples;Min_cycle;Max_cycle;Signal;HPM_P1;HPM_P2
2022/04/20 00:01:58;;;;;;;5.40;3.47;;;8.40;91.60;;;;;;5099865;27;20058;-79
2022/04/20 00:04:24;;;;;;;4.93;3.10;;;8.40;91.60;;;;;;5116177;27;20055;-79
2022/04/20 00:06:49;;;;;;;5.60;3.70;;;8.40;91.50;;;;;;5116614;27;20047;-79
2022/04/20 00:09:15;;;;;;;4.63;3.58;;;8.40;91.40;;;;;;5116154;27;20043;-79
2022/04/20 00:11:40;;;;;;;5.88;3.65;;;8.40;91.60;;;;;;5116495;27;20104;-79
2022/04/20 00:14:06;;;;;;;4.82;3.67;;;8.40;91.30;;;;;;5099602;27;20051;-79
2022/04/20 00:16:32;;;;;;;7.10;3.90;;;8.40;91.00;;;;;;5082160;27;20134;-79
2022/04/20 00:18:57;;;;;;;8.98;4.00;;;8.30;91.00;;;;;;5116544;27;20158;-79
2022/04/20 00:21:23;;;;;;;6.63;4.20;;;8.30;90.90;;;;;;5134186;27;20050;-79
2022/04/20 00:23:49;;;;;;;6.65;3.92;;;8.40;90.90;;;;;;5116338;27;20398;-79
2022/04/20 00:26:15;;;;;;;7.63;3.88;;;8.30;90.70;;;;;;5099144;27;20054;-80
2022/04/20 00:28:41;;;;;;;6.97;4.35;;;8.30;90.70;;;;;;5082488;27;20047;-79
2022/04/20 00:31:06;;;;;;;5.75;4.50;;;8.30;90.70;;;;;;5116081;27;20085;-79
2022/04/20 00:33:32;;;;;;;7.07;4.20;;;8.30;90.80;;;;;;5098605;27;20402;-80
2022/04/20 00:35:58;;;;;;;9.32;4.35;;;8.30;90.80;;;;;;5116200;27;20074;-79
2022/04/20 00:38:23;;;;;;;6.25;4.38;;;8.20;90.60;;;;;;5115728;27;20433;-79
2022/04/20 00:40:49;;;;;;;6.43;4.07;;;8.20;90.70;;;;;;5099070;27;20043;-79
2022/04/20 00:43:15;;;;;;;5.95;4.47;;;8.20;90.80;;;;;;5099063;27;20101;-79
2022/04/20 00:45:42;;;;;;;6.85;4.90;;;8.20;90.70;;;;;;5098431;27;20043;-79
2022/04/20 00:48:10;;;;;;;4.95;4.20;;;8.10;90.60;;;;;;5098840;27;20099;-79
2022/04/20 00:50:35;;;;;;;6.68;4.88;;;8.10;90.90;;;;;;5098515;27;20565;-78
2022/04/20 00:53:01;;;;;;;12.10;4.82;;;8.10;91.00;;;;;;5099036;27;20175;-80
2022/04/20 00:55:27;;;;;;;6.63;4.68;;;8.10;91.00;;;;;;5098465;27;20047;-79
2022/04/20 00:57:52;;;;;;;6.95;4.47;;;8.00;91.00;;;;;;5115824;27;20047;-78
2022/04/20 01:00:18;;;;;;;7.22;5.10;;;8.00;90.90;;;;;;5115848;27;20116;-78
2022/04/20 01:02:44;;;;;;;5.82;5.18;;;8.00;90.90;;;;;;5098239;27;20463;-79
2022/04/20 01:05:10;;;;;;;7.45;4.78;;;8.00;91.10;;;;;;5115046;27;20476;-79
2022/04/20 01:07:40;;;;;;;7.43;4.93;;;7.90;91.10;;;;;;5115128;27;20104;-79
2022/04/20 01:10:06;;;;;;;8.75;4.90;;;7.90;91.00;;;;;;5098283;27;20059;-79
2022/04/20 01:12:31;;;;;;;5.82;4.50;;;7.90;91.00;;;;;;5098261;27;20047;-79
2022/04/20 01:14:57;;;;;;;6.50;4.93;;;7.90;91.10;;;;;;5081709;27;20046;-79
2022/04/20 01:17:23;;;;;;;6.25;4.85;;;7.80;91.10;;;;;;5098079;27;20060;-79
2022/04/20 01:19:48;;;;;;;7.90;4.90;;;7.90;91.10;;;;;;5125610;27;20055;-78
2022/04/20 01:22:14;;;;;;;6.22;4.43;;;7.80;91.10;;;;;;5094895;28;20043;-79
2022/04/20 01:24:40;;;;;;;6.07;4.90;;;7.80;91.00;;;;;;5112320;28;20544;-79
2022/04/20 01:27:06;;;;;;;6.07;5.00;;;7.70;91.00;;;;;;5095734;28;20039;-79
2022/04/20 01:29:32;;;;;;;6.32;4.82;;;7.70;90.90;;;;;;5097845;28;20062;-79
2022/04/20 01:31:57;;;;;;;6.45;5.07;;;7.70;91.00;;;;;;5064704;28;20039;-78
2022/04/20 01:34:23;;;;;;;7.15;4.65;;;7.70;91.10;;;;;;5115332;28;20043;-78
2022/04/20 01:36:49;;;;;;;8.05;5.45;;;7.70;91.20;;;;;;5114899;28;20082;-79
2022/04/20 01:39:15;;;;;;;6.57;5.05;;;7.70;91.10;;;;;;5077960;28;20063;-79
2022/04/20 01:41:41;;;;;;;5.65;4.93;;;7.70;91.10;;;;;;5077561;28;20048;-78
2022/04/20 01:44:07;;;;;;;5.80;4.75;;;7.70;91.30;;;;;;5077938;28;20044;-79
2022/04/20 01:46:33;;;;;;;7.93;4.90;;;7.60;91.10;;;;;;5111440;28;20042;-78
2022/04/20 01:48:59;;;;;;;6.28;5.03;;;7.60;91.20;;;;;;5094967;28;20047;-79
2022/04/20 01:54:10;;;;;;;6.30;4.82;;;7.60;91.30;;;;;;5093619;28;20050;-78
2022/04/20 01:56:36;;;;;;;6.60;5.05;;;7.60;91.50;;;;;;5080987;28;20058;-78
2022/04/20 01:59:01;;;;;;;5.82;5.22;;;7.60;91.70;;;;;;5098404;28;20394;-79
2022/04/20 02:04:11;;;;;;;6.22;4.60;;;7.50;91.60;;;;;;5100668;28;20045;-78
2022/04/20 02:06:37;;;;;;;7.20;4.90;;;7.50;92.10;;;;;;5097759;28;20039;-78
2022/04/20 02:09:02;;;;;;;6.75;4.43;;;7.40;91.70;;;;;;5115079;28;20485;-79
2022/04/20 02:11:28;;;;;;;5.90;4.40;;;7.40;91.70;;;;;;5115260;28;20090;-78
2022/04/20 02:13:54;;;;;;;8.07;4.88;;;7.50;91.70;;;;;;5114779;28;20398;-78
2022/04/20 02:16:19;;;;;;;6.57;4.85;;;7.40;92.00;;;;;;5114868;28;20086;-78
2022/04/20 02:18:45;;;;;;;7.93;4.60;;;7.30;92.00;;;;;;5114373;28;20394;-79
2022/04/20 02:21:11;;;;;;;5.50;4.90;;;7.40;92.10;;;;;;5097274;28;20040;-78
2022/04/20 02:23:36;;;;;;;5.40;4.75;;;7.30;92.10;;;;;;5080595;28;20372;-78
2022/04/20 02:26:02;;;;;;;7.70;4.90;;;7.20;92.10;;;;;;5114856;28;20084;-78
2022/04/20 02:28:28;;;;;;;7.05;4.82;;;7.20;92.20;;;;;;5114776;28;20039;-78
2022/04/20 02:30:53;;;;;;;7.22;4.28;;;7.20;92.20;;;;;;5097386;28;20133;-78
2022/04/20 02:33:19;;;;;;;7.50;4.70;;;7.10;92.20;;;;;;5114913;28;20069;-78
2022/04/20 02:35:44;;;;;;;7.53;4.70;;;7.00;92.20;;;;;;5097477;28;20054;-78
2022/04/20 02:38:11;;;;;;;6.15;4.93;;;6.90;92.30;;;;;;5097730;28;20039;-78
2022/04/20 02:40:38;;;;;;;7.88;4.72;;;6.80;92.40;;;;;;5100700;27;20077;-78
2022/04/20 02:43:03;;;;;;;5.82;4.22;;;6.80;92.60;;;;;;5118287;27;20051;-78
2022/04/20 02:45:29;;;;;;;5.68;4.28;;;6.80;92.80;;;;;;5101527;27;20536;-78
2022/04/20 02:47:55;;;;;;;6.78;5.00;;;6.80;92.90;;;;;;5100815;27;20054;-78
2022/04/20 02:50:20;;;;;;;6.72;4.07;;;6.80;93.10;;;;;;5118210;27;20051;-78
2022/04/20 02:52:46;;;;;;;9.57;5.40;;;6.70;93.20;;;;;;5117876;27;20079;-78
2022/04/20 02:55:12;;;;;;;7.78;4.72;;;6.80;93.30;;;;;;5100858;27;20126;-78
2022/04/20 02:57:37;;;;;;;5.75;4.70;;;6.70;93.30;;;;;;5117654;27;20046;-78
2022/04/20 03:00:04;;;;;;;7.18;4.78;;;6.70;93.40;;;;;;5117923;27;20039;-78
2022/04/20 03:02:31;;;;;;;7.68;4.75;;;6.60;93.50;;;;;;5117895;27;20396;-78
2022/04/20 03:04:57;;;;;;;10.73;4.90;;;6.60;93.60;;;;;;5100481;27;20047;-78
2022/04/20 03:07:22;;;;;;;6.93;4.70;;;6.70;93.70;;;;;;5084134;27;20047;-78
2022/04/20 03:09:48;;;;;;;5.68;4.53;;;6.60;93.50;;;;;;5117174;27;20047;-78
2022/04/20 03:12:14;;;;;;;5.95;4.70;;;6.50;93.60;;;;;;5117793;27;20084;-78
2022/04/20 03:14:40;;;;;;;8.02;4.93;;;6.50;93.70;;;;;;5100423;27;20050;-78
2022/04/20 03:17:05;;;;;;;8.05;4.90;;;6.50;93.80;;;;;;5100857;27;20046;-78
2022/04/20 03:19:31;;;;;;;7.72;5.20;;;6.40;94.10;;;;;;5083933;27;20046;-78
2022/04/20 03:21:56;;;;;;;8.77;5.32;;;6.50;94.20;;;;;;5117232;27;20031;-78
2022/04/20 03:24:22;;;;;;;8.68;5.95;;;6.40;94.30;;;;;;5135388;27;20046;-77
2022/04/20 03:26:48;;;;;;;7.70;5.72;;;6.30;94.40;;;;;;5100136;27;20035;-77
2022/04/20 03:29:13;;;;;;;7.43;4.95;;;6.40;94.50;;;;;;5100713;27;20047;-77
2022/04/20 03:31:39;;;;;;;7.15;5.13;;;6.40;94.50;;;;;;5100606;27;20090;-78
2022/04/20 03:34:05;;;;;;;8.63;5.38;;;6.30;94.60;;;;;;5117932;27;20126;-78
2022/04/20 03:36:30;;;;;;;8.30;5.75;;;6.30;94.70;;;;;;5117318;27;20079;-78
2022/04/20 03:38:56;;;;;;;6.82;5.10;;;6.30;94.80;;;;;;5100022;27;20062;-78
2022/04/20 03:41:24;;;;;;;7.28;5.70;;;6.30;94.90;;;;;;5100409;27;20043;-78
2022/04/20 03:43:50;;;;;;;10.15;5.75;;;6.30;94.90;;;;;;5116684;27;20054;-78
2022/04/20 03:46:16;;;;;;;6.95;5.50;;;6.30;95.10;;;;;;5117335;27;20047;-78
2022/04/20 03:48:42;;;;;;;9.68;5.72;;;6.30;95.30;;;;;;5083415;27;20039;-80
2022/04/20 03:51:08;;;;;;;10.63;6.30;;;6.30;95.20;;;;;;5134795;27;20050;-78
2022/04/20 03:53:34;;;;;;;8.63;5.57;;;6.30;95.30;;;;;;5116974;27;20035;-78
2022/04/20 03:55:59;;;;;;;12.75;6.13;;;6.30;95.10;;;;;;5093798;27;20039;-78
2022/04/20 03:58:25;;;;;;;10.65;5.72;;;6.40;95.30;;;;;;5098696;28;20040;-78
2022/04/20 04:00:51;;;;;;;8.18;5.38;;;6.40;95.40;;;;;;5100082;27;20108;-78
2022/04/20 04:03:18;;;;;;;7.80;5.47;;;6.50;95.20;;;;;;5116973;27;20387;-78
2022/04/20 04:05:43;;;;;;;8.57;5.22;;;6.50;95.10;;;;;;5116927;27;20475;-78
2022/04/20 04:08:09;;;;;;;7.90;5.10;;;6.50;95.10;;;;;;5099840;27;20127;-78
2022/04/20 04:10:35;;;;;;;9.50;5.38;;;6.40;95.10;;;;;;5099570;27;20138;-78
2022/04/20 04:13:01;;;;;;;8.05;4.97;;;6.40;95.30;;;;;;5095601;28;20050;-78
2022/04/20 04:15:28;;;;;;;6.75;5.47;;;6.40;95.40;;;;;;5096337;28;20051;-77
2022/04/20 04:17:54;;;;;;;7.00;4.63;;;6.50;95.40;;;;;;5095911;28;20373;-78
2022/04/20 04:20:23;;;;;;;8.95;5.18;;;6.40;95.50;;;;;;5096106;28;20396;-78
2022/04/20 04:22:51;;;;;;;6.97;5.05;;;6.40;95.60;;;;;;5078737;28;20078;-78
2022/04/20 04:25:17;;;;;;;7.75;5.15;;;6.40;95.60;;;;;;5115942;27;20176;-77
2022/04/20 04:27:43;;;;;;;7.32;4.50;;;6.40;95.80;;;;;;5082482;27;20133;-78
2022/04/20 04:30:09;;;;;;;6.38;4.43;;;6.40;96.10;;;;;;5134054;27;20043;-78
2022/04/20 04:32:35;;;;;;;6.60;5.03;;;6.40;95.90;;;;;;5116197;27;20051;-78
2022/04/20 04:35:01;;;;;;;6.25;4.80;;;6.50;96.20;;;;;;5082020;27;20475;-78
2022/04/20 04:37:27;;;;;;;7.93;5.30;;;6.40;96.20;;;;;;5081998;27;20118;-78
2022/04/20 04:39:52;;;;;;;6.32;5.18;;;6.40;96.30;;;;;;5115549;27;20046;-78
2022/04/20 04:42:19;;;;;;;6.13;4.60;;;6.40;96.30;;;;;;5098674;27;20043;-77
2022/04/20 04:44:44;;;;;;;7.90;4.85;;;6.40;96.30;;;;;;5115831;27;20092;-78
2022/04/20 04:49:54;;;;;;;6.65;4.85;;;6.60;96.50;;;;;;5118159;27;20138;-78
2022/04/20 04:52:20;;;;;;;8.07;4.97;;;6.40;96.60;;;;;;5098968;27;20087;-77
2022/04/20 04:54:46;;;;;;;6.72;4.90;;;6.40;96.70;;;;;;5115682;27;20055;-78
2022/04/20 04:57:12;;;;;;;5.75;4.80;;;6.40;96.90;;;;;;5081737;27;20043;-77
2022/04/20 04:59:38;;;;;;;8.20;5.20;;;6.40;97.10;;;;;;5098775;27;20544;-77
2022/04/20 05:02:04;;;;;;;7.88;4.63;;;6.40;97.20;;;;;;5080563;27;20047;-77
2022/04/20 05:04:30;;;;;;;6.50;4.65;;;6.40;97.20;;;;;;5098828;27;20426;-77
2022/04/20 05:06:59;;;;;;;5.18;4.47;;;6.40;97.20;;;;;;5115241;27;20047;-77
2022/04/20 05:09:24;;;;;;;6.63;4.90;;;6.50;97.20;;;;;;5098525;27;20055;-77
2022/04/20 05:11:50;;;;;;;6.32;4.70;;;6.50;97.20;;;;;;5098808;27;20050;-79
2022/04/20 05:14:16;;;;;;;6.55;4.65;;;6.50;97.40;;;;;;5133308;27;20047;-76
2022/04/20 05:16:42;;;;;;;7.50;5.10;;;6.50;97.30;;;;;;5098378;28;20382;-77
2022/04/20 05:19:08;;;;;;;6.35;4.93;;;6.50;97.30;;;;;;5133329;27;20047;-77
2022/04/20 05:21:34;;;;;;;6.63;4.60;;;6.50;97.40;;;;;;5115575;27;20047;-76
2022/04/20 05:23:59;;;;;;;7.22;4.85;;;6.50;97.30;;;;;;5092843;28;20039;-76
2022/04/20 05:26:25;;;;;;;8.75;4.78;;;6.60;97.30;;;;;;5095164;28;20089;-76
2022/04/20 05:28:51;;;;;;;6.13;4.70;;;6.60;97.40;;;;;;5078477;28;20047;-76
2022/04/20 05:31:17;;;;;;;6.05;4.75;;;6.60;97.30;;;;;;5094837;28;20055;-77
2022/04/20 05:33:43;;;;;;;7.78;5.00;;;6.70;97.30;;;;;;5095198;28;20392;-76
2022/04/20 05:36:09;;;;;;;9.95;4.90;;;6.70;97.40;;;;;;5094732;28;20070;-76
2022/04/20 05:44:03;;;;;;;7.78;4.80;;;6.80;97.30;;;;;;5112659;28;20134;-77
2022/04/20 05:46:29;;;;;;;5.63;4.78;;;6.80;97.20;;;;;;5077854;28;20078;-76
2022/04/20 05:48:54;;;;;;;6.53;4.28;;;6.90;97.20;;;;;;5094804;28;20086;-76
2022/04/20 05:51:20;;;;;;;8.73;4.95;;;6.90;97.20;;;;;;5077238;28;20511;-76
2022/04/20 05:53:46;;;;;;;5.72;4.88;;;6.90;97.30;;;;;;5078037;28;20083;-76
2022/04/20 05:56:11;;;;;;;8.27;4.93;;;6.90;97.30;;;;;;5112481;28;20051;-76
2022/04/20 05:58:37;;;;;;;8.13;4.88;;;7.00;97.30;;;;;;5078268;28;20050;-76
2022/04/20 06:01:02;;;;;;;8.07;4.75;;;7.00;97.30;;;;;;5112680;28;20047;-77
2022/04/20 06:03:28;;;;;;;6.13;4.88;;;7.00;97.30;;;;;;5112438;28;20040;-76
2022/04/20 06:05:54;;;;;;;6.32;4.65;;;7.10;97.30;;;;;;5077852;28;20051;-76
2022/04/20 06:08:19;;;;;;;6.43;4.45;;;7.10;97.20;;;;;;5077696;28;20328;-76
2022/04/20 06:10:46;;;;;;;6.15;4.53;;;7.20;97.30;;;;;;5094217;28;20067;-76
2022/04/20 06:13:12;;;;;;;5.95;4.45;;;7.10;97.30;;;;;;5095729;28;20138;-76
2022/04/20 06:15:38;;;;;;;5.97;4.88;;;7.20;97.30;;;;;;5098329;28;20540;-76
2022/04/20 06:18:04;;;;;;;5.35;4.20;;;7.20;97.30;;;;;;5098175;28;20079;-77
2022/04/20 06:20:29;;;;;;;6.50;4.68;;;7.20;97.40;;;;;;5098613;28;20075;-76
2022/04/20 06:22:55;;;;;;;5.15;4.53;;;7.20;97.40;;;;;;5098621;28;20047;-76
2022/04/20 06:25:20;;;;;;;8.90;4.85;;;7.30;97.40;;;;;;5115911;28;20054;-76
2022/04/20 06:27:46;;;;;;;4.78;4.28;;;7.40;97.40;;;;;;5116142;28;20043;-76
2022/04/20 06:30:12;;;;;;;5.18;4.63;;;7.30;97.50;;;;;;5097878;28;20043;-76
2022/04/20 06:32:37;;;;;;;8.23;4.82;;;7.40;97.60;;;;;;5081520;28;20039;-76
2022/04/20 06:35:04;;;;;;;6.53;4.93;;;7.40;97.60;;;;;;5116339;28;20039;-76
2022/04/20 06:37:29;;;;;;;9.15;4.75;;;7.50;97.60;;;;;;5064576;28;20484;-76
2022/04/20 06:39:56;;;;;;;7.05;4.90;;;7.50;97.50;;;;;;5116215;28;20047;-76
2022/04/20 06:42:22;;;;;;;8.73;5.15;;;7.50;97.40;;;;;;5097848;28;20126;-76
2022/04/20 06:44:48;;;;;;;7.32;5.03;;;7.50;97.20;;;;;;5064423;28;20127;-76
2022/04/20 06:47:14;;;;;;;7.50;5.00;;;7.60;97.20;;;;;;5080672;28;20047;-76
2022/04/20 06:49:40;;;;;;;5.57;4.75;;;7.60;97.10;;;;;;5116411;28;20050;-76
2022/04/20 07:00:18;;;;;;;7.78;5.03;;;7.80;96.60;;;;;;5085716;28;20134;-76
2022/04/20 07:02:44;;;;;;;7.50;4.38;;;7.90;96.20;;;;;;5080685;28;20149;-76
2022/04/20 07:05:10;;;;;;;6.82;4.57;;;7.90;96.00;;;;;;5097112;28;20047;-76
2022/04/20 07:07:36;;;;;;;6.05;4.30;;;8.00;95.80;;;;;;5064214;28;20101;-76
2022/04/20 07:10:02;;;;;;;5.15;4.38;;;8.10;95.40;;;;;;5097197;28;20055;-76
2022/04/20 07:12:28;;;;;;;6.32;4.15;;;8.10;95.10;;;;;;5097063;28;20260;-76
2022/04/20 07:14:54;;;;;;;6.55;4.60;;;8.20;95.00;;;;;;5080642;28;20102;-76
2022/04/20 07:17:19;;;;;;;8.27;4.40;;;8.20;95.10;;;;;;5097188;28;20051;-76
2022/04/20 07:19:45;;;;;;;8.65;4.35;;;8.30;95.00;;;;;;5097485;28;20048;-76
2022/04/20 07:22:10;;;;;;;6.50;4.30;;;8.30;94.90;;;;;;5114981;28;20040;-77
2022/04/20 07:24:36;;;;;;;5.15;4.18;;;8.50;95.00;;;;;;5096198;28;20086;-77
2022/04/20 07:27:02;;;;;;;4.97;4.40;;;8.50;94.80;;;;;;5115384;28;20043;-77
2022/04/20 07:29:27;;;;;;;4.75;4.00;;;8.60;94.80;;;;;;5096822;28;20392;-76
2022/04/20 07:31:53;;;;;;;4.97;3.53;;;8.60;94.70;;;;;;5114004;28;20044;-76
2022/04/20 07:34:19;;;;;;;5.22;3.85;;;8.70;93.70;;;;;;5096612;28;20048;-76
2022/04/20 07:36:45;;;;;;;6.20;3.85;;;8.80;93.20;;;;;;5115095;28;20044;-76
2022/04/20 07:39:10;;;;;;;6.75;3.97;;;8.90;92.40;;;;;;5114989;28;20136;-76
2022/04/20 07:41:38;;;;;;;4.05;3.65;;;8.90;92.00;;;;;;5079753;28;20081;-76
2022/04/20 07:44:04;;;;;;;6.00;3.88;;;9.00;91.90;;;;;;5096923;28;20043;-76
2022/04/20 07:46:30;;;;;;;5.28;3.63;;;9.10;92.20;;;;;;5114532;28;20392;-76
2022/04/20 07:48:55;;;;;;;4.80;3.35;;;9.20;91.90;;;;;;5080099;28;20048;-76
2022/04/20 07:51:21;;;;;;;5.35;3.35;;;9.30;90.60;;;;;;5096145;28;20062;-76
2022/04/20 07:53:47;;;;;;;4.20;3.00;;;9.50;89.90;;;;;;5096701;28;20073;-76
2022/04/20 07:56:12;;;;;;;4.63;2.97;;;9.60;88.30;;;;;;5079879;28;20048;-77
2022/04/20 07:58:38;;;;;;;5.05;2.95;;;9.60;85.70;;;;;;5096025;28;20051;-76
2022/04/20 08:01:04;;;;;;;7.95;3.25;;;9.70;84.80;;;;;;5114274;28;20044;-76
2022/04/20 08:03:29;;;;;;;5.47;3.20;;;9.90;84.20;;;;;;5114095;28;20042;-76
2022/04/20 08:05:56;;;;;;;4.05;3.25;;;10.00;83.30;;;;;;5114457;28;20043;-76
2022/04/20 08:08:22;;;;;;;5.85;3.08;;;10.10;83.00;;;;;;5095951;28;20043;-76
2022/04/20 08:10:48;;;;;;;3.70;2.80;;;10.20;81.80;;;;;;5095984;28;20142;-76
2022/04/20 08:15:57;;;;;;;3.45;2.80;;;10.50;79.30;;;;;;5082256;28;20369;-76
2022/04/20 08:18:24;;;;;;;5.05;2.70;;;10.60;78.60;;;;;;5079036;28;20055;-76
2022/04/20 08:20:50;;;;;;;3.00;2.38;;;10.70;76.40;;;;;;5114207;28;20043;-76
2022/04/20 08:23:16;;;;;;;4.90;2.53;;;10.70;74.80;;;;;;5079031;28;20099;-76
2022/04/20 08:25:43;;;;;;;4.72;2.20;;;10.80;73.80;;;;;;5095674;28;20040;-76
2022/04/20 08:28:09;;;;;;;5.65;2.58;;;10.80;70.40;;;;;;5095956;28;20055;-76
2022/04/20 08:30:35;;;;;;;2.65;2.03;;;10.80;72.20;;;;;;5095449;28;20055;-76
2022/04/20 08:33:01;;;;;;;3.08;2.10;;;10.90;70.90;;;;;;5095873;28;20047;-77
2022/04/20 08:35:27;;;;;;;4.53;2.10;;;10.90;70.70;;;;;;5113529;28;20044;-76
2022/04/20 08:37:52;;;;;;;3.47;2.05;;;10.90;70.20;;;;;;5113972;28;20135;-76
2022/04/20 08:40:18;;;;;;;3.30;2.15;;;10.90;68.80;;;;;;5095942;28;20364;-76
2022/04/20 08:42:43;;;;;;;2.20;1.90;;;11.00;68.60;;;;;;5095316;28;20126;-76
2022/04/20 08:45:09;;;;;;;3.25;2.00;;;10.90;68.30;;;;;;5061986;28;20076;-76
2022/04/20 08:47:39;;;;;;;3.65;2.00;;;11.00;66.80;;;;;;5078386;28;20052;-75
2022/04/20 08:50:06;;;;;;;2.92;1.80;;;11.00;65.10;;;;;;5113693;28;20392;-77
2022/04/20 08:52:38;;;;;;;4.28;2.00;;;11.00;64.90;;;;;;5113264;28;20047;-76
2022/04/20 08:55:05;;;;;;;3.08;1.73;;;11.00;64.50;;;;;;5063106;28;20036;-76
2022/04/20 08:57:32;;;;;;;2.72;1.90;;;11.00;65.20;;;;;;5077901;28;20549;-76
2022/04/20 08:59:58;;;;;;;2.47;1.77;;;11.00;64.00;;;;;;5113661;28;20434;-76
2022/04/20 09:02:24;;;;;;;3.30;1.85;;;11.10;62.80;;;;;;5112921;28;20089;-77
2022/04/20 09:04:50;;;;;;;8.50;1.80;;;11.10;61.50;;;;;;5095290;28;20533;-76
2022/04/20 09:07:16;;;;;;;2.38;1.80;;;11.10;61.70;;;;;;5078626;28;20051;-76
2022/04/20 09:09:41;;;;;;;2.05;1.60;;;11.20;62.20;;;;;;5077776;28;20415;-76
2022/04/20 09:12:14;;;;;;;3.67;1.65;;;11.20;61.90;;;;;;5095294;28;20050;-76
2022/04/20 09:14:41;;;;;;;2.65;1.60;;;11.20;61.30;;;;;;5095013;28;20051;-76
2022/04/20 09:17:10;;;;;;;3.92;1.75;;;11.30;61.40;;;;;;5094901;28;20047;-76
2022/04/20 09:19:36;;;;;;;3.85;1.52;;;11.30;60.80;;;;;;5112768;28;20499;-77
2022/04/20 09:22:01;;;;;;;5.10;1.65;;;11.30;60.20;;;;;;5062130;28;20050;-77
2022/04/20 09:24:27;;;;;;;1.70;1.60;;;11.40;60.70;;;;;;5077846;28;20047;-77
2022/04/20 09:26:56;;;;;;;1.88;1.35;;;11.40;59.70;;;;;;5095220;28;20483;-77
2022/04/20 09:29:22;;;;;;;3.03;1.35;;;11.50;59.90;;;;;;5078351;28;20144;-77
2022/04/20 09:31:49;;;;;;;1.20;1.10;;;11.50;59.70;;;;;;5094566;28;20087;-77
2022/04/20 09:34:53;;;;;;;3.25;1.00;;;11.60;58.70;;;;;;5094961;28;20043;-77
2022/04/20 09:37:19;;;;;;;2.30;1.38;;;11.60;57.60;;;;;;5095286;28;20066;-76
2022/04/20 09:39:46;;;;;;;3.13;1.30;;;11.60;58.60;;;;;;5077988;28;20055;-76
2022/04/20 09:42:12;;;;;;;4.10;1.25;;;11.70;57.90;;;;;;5061618;28;20048;-76
2022/04/20 09:44:40;;;;;;;3.25;1.92;;;11.70;57.40;;;;;;5094474;28;20058;-76
2022/04/20 09:50:00;;;;;;;3.65;1.00;;;11.90;56.20;;;;;;5116817;28;20077;-76
2022/04/20 09:52:48;;;;;;;2.13;1.27;;;11.90;54.80;;;;;;5082412;28;20397;-76
2022/04/20 09:55:15;;;;;;;1.35;1.13;;;12.00;54.40;;;;;;5067488;28;20073;-76
2022/04/20 09:57:41;;;;;;;1.63;1.10;;;12.00;55.20;;;;;;5098604;28;20118;-76
2022/04/20 10:00:09;;;;;;;2.05;1.13;;;12.10;54.50;;;;;;5081989;28;20559;-76
2022/04/20 10:02:49;;;;;;;4.20;1.00;;;12.10;54.40;;;;;;5098465;28;20048;-77
2022/04/20 10:05:19;;;;;;;2.90;1.00;;;12.30;51.10;;;;;;5081951;28;20043;-76
2022/04/20 10:07:44;;;;;;;2.33;0.90;;;12.30;52.90;;;;;;5081714;28;20055;-77
2022/04/20 10:10:10;;;;;;;2.47;1.00;;;12.30;53.30;;;;;;5081716;28;20060;-77
2022/04/20 10:12:38;;;;;;;3.58;1.20;;;12.40;52.90;;;;;;5081056;28;20058;-77
2022/04/20 10:17:53;;;;;;;1.30;1.20;;;12.40;52.60;;;;;;5100795;28;20047;-77
2022/04/20 10:20:19;;;;;;;3.17;1.20;;;12.40;52.70;;;;;;5099374;28;20047;-77
2022/04/20 10:22:45;;;;;;;3.08;1.42;;;12.50;52.70;;;;;;5116042;28;20147;-77
2022/04/20 10:25:11;;;;;;;1.65;1.33;;;12.60;51.90;;;;;;5081274;28;20146;-77
2022/04/20 10:28:03;;;;;;;1.88;1.35;;;12.70;52.40;;;;;;5081162;28;20055;-77
2022/04/20 10:31:07;;;;;;;1.35;1.10;;;12.80;51.60;;;;;;5098437;28;20047;-77
2022/04/20 10:33:33;;;;;;;2.65;1.23;;;12.80;52.20;;;;;;5069268;28;20048;-76
2022/04/20 10:36:09;;;;;;;1.63;1.10;;;12.90;52.50;;;;;;5081620;28;20055;-77
2022/04/20 10:38:34;;;;;;;3.03;1.67;;;13.00;52.50;;;;;;5065410;28;20043;-79
2022/04/20 10:41:07;;;;;;;2.10;1.20;;;13.10;53.00;;;;;;5098062;28;20088;-77
2022/04/20 10:43:35;;;;;;;2.85;1.27;;;13.10;52.00;;;;;;5116078;28;20100;-77
2022/04/20 10:46:17;;;;;;;2.22;1.10;;;13.10;52.10;;;;;;5116062;28;20055;-76
2022/04/20 10:48:58;;;;;;;1.58;1.35;;;13.20;51.80;;;;;;5097509;28;20039;-77
2022/04/20 10:51:30;;;;;;;3.08;1.35;;;13.20;51.50;;;;;;5098409;28;20040;-76
2022/04/20 10:54:22;;;;;;;4.43;1.30;;;13.30;51.20;;;;;;5097572;28;20050;-77
2022/04/20 10:56:49;;;;;;;3.60;1.20;;;13.30;51.00;;;;;;5063829;28;20112;-77
2022/04/20 10:59:14;;;;;;;4.00;1.33;;;13.40;50.00;;;;;;5096732;28;20043;-77
2022/04/20 11:01:58;;;;;;;2.42;1.17;;;13.50;49.60;;;;;;5063829;28;20097;-77
2022/04/20 11:04:40;;;;;;;1.92;1.20;;;13.60;47.70;;;;;;5115718;28;20044;-76
2022/04/20 11:07:09;;;;;;;2.40;1.52;;;13.70;48.20;;;;;;5080854;28;20043;-78
2022/04/20 11:09:48;;;;;;;1.50;1.30;;;13.70;48.90;;;;;;5080665;28;20388;-77
2022/04/20 11:23:59;;;;;;;2.55;1.88;;;13.90;51.30;;;;;;5115289;28;20047;-78
2022/04/20 11:26:39;;;;;;;2.28;1.60;;;13.90;50.70;;;;;;5080532;28;20055;-78
2022/04/20 11:29:09;;;;;;;3.33;1.60;;;13.90;51.20;;;;;;5114874;28;20057;-78
2022/04/20 11:31:40;;;;;;;2.03;1.60;;;14.00;51.20;;;;;;5097099;28;20534;-79
2022/04/20 11:34:06;;;;;;;1.65;1.55;;;14.00;50.50;;;;;;5063545;28;20156;-78
2022/04/20 11:36:32;;;;;;;2.20;1.90;;;14.10;50.70;;;;;;5115062;28;20055;-78
2022/04/20 11:38:59;;;;;;;4.10;1.50;;;14.10;51.00;;;;;;5079921;28;20058;-78
2022/04/20 11:41:25;;;;;;;2.17;1.45;;;14.10;50.90;;;;;;5096675;28;20134;-78
2022/04/20 11:43:51;;;;;;;1.77;1.50;;;14.20;50.60;;;;;;5096142;28;20127;-78
2022/04/20 11:46:17;;;;;;;3.28;1.50;;;14.20;50.10;;;;;;5096949;28;20058;-78
2022/04/20 11:48:56;;;;;;;3.63;1.50;;;14.20;50.70;;;;;;5079989;28;20526;-78
2022/04/20 11:51:27;;;;;;;1.60;1.23;;;14.20;49.80;;;;;;5079943;28;20368;-78
2022/04/20 11:53:53;;;;;;;4.00;1.48;;;14.20;50.00;;;;;;5063259;28;20360;-86
2022/04/20 11:56:33;;;;;;;1.92;1.55;;;14.20;49.90;;;;;;5080036;28;20100;-86
2022/04/20 11:58:58;;;;;;;2.80;1.55;;;14.30;48.90;;;;;;5080212;28;20047;-86
2022/04/20 12:01:25;;;;;;;3.65;1.60;;;14.30;48.70;;;;;;5079981;28;20040;-84
2022/04/20 12:03:51;;;;;;;3.13;1.42;;;14.40;49.60;;;;;;5062708;28;20082;-85
2022/04/20 12:06:17;;;;;;;1.25;1.00;;;14.40;49.50;;;;;;5096547;28;20128;-85
2022/04/20 12:08:44;;;;;;;1.63;1.40;;;14.50;48.70;;;;;;5063249;28;20058;-86
2022/04/20 12:11:12;;;;;;;2.08;1.20;;;14.50;47.60;;;;;;5078329;28;20057;-85
2022/04/20 12:13:39;;;;;;;1.42;1.10;;;14.50;47.20;;;;;;5079389;28;20093;-85
2022/04/20 12:16:10;;;;;;;2.33;1.40;;;14.50;47.50;;;;;;5046305;28;20051;-85
2022/04/20 12:18:39;;;;;;;2.92;1.35;;;14.60;47.10;;;;;;5046473;28;20043;-85
2022/04/20 12:21:07;;;;;;;2.20;1.30;;;14.70;47.00;;;;;;5079050;28;20381;-85
2022/04/20 12:23:37;;;;;;;1.83;1.20;;;14.70;46.90;;;;;;5062952;28;20044;-77
2022/04/20 12:26:06;;;;;;;1.77;1.08;;;14.80;46.50;;;;;;5095677;28;20149;-79
2022/04/20 12:28:41;;;;;;;1.65;1.10;;;14.90;46.40;;;;;;5113925;28;20050;-79
2022/04/20 12:31:09;;;;;;;3.08;1.10;;;14.90;46.20;;;;;;5079094;28;20051;-80
2022/04/20 12:33:37;;;;;;;2.55;1.10;;;14.90;46.30;;;;;;5079081;28;20091;-79
2022/04/20 12:36:03;;;;;;;2.28;1.20;;;14.90;47.00;;;;;;5079045;28;20357;-78
2022/04/20 12:38:39;;;;;;;1.60;1.25;;;15.00;46.40;;;;;;5079194;28;20113;-78
2022/04/20 12:41:05;;;;;;;2.85;1.45;;;15.10;46.10;;;;;;5096765;28;20070;-78
2022/04/20 12:43:36;;;;;;;2.47;1.20;;;15.20;47.20;;;;;;5062211;28;20048;-77
2022/04/20 12:46:14;;;;;;;1.83;1.60;;;15.10;47.30;;;;;;5078545;28;20077;-78
2022/04/20 12:48:43;;;;;;;1.73;1.23;;;15.20;47.80;;;;;;5113775;28;20044;-78
2022/04/20 12:51:23;;;;;;;2.65;1.10;;;15.20;48.00;;;;;;5095397;28;20040;-78
2022/04/20 12:53:49;;;;;;;;;;;15.30;47.90;;;;;;5114206;28;20078;-78
2022/04/20 13:02:01;;;;;;;2.40;1.45;;;15.30;48.30;;;;;;5095254;28;20128;-77
2022/04/20 13:04:28;;;;;;;1.67;1.35;;;15.40;48.10;;;;;;5113061;28;20083;-78
2022/04/20 13:06:57;;;;;;;2.65;1.30;;;15.40;48.50;;;;;;5095052;28;20055;-78
2022/04/20 13:09:22;;;;;;;2.35;1.35;;;15.40;48.60;;;;;;5113347;28;20043;-78
2022/04/20 13:11:48;;;;;;;2.40;1.27;;;15.40;48.50;;;;;;5078592;28;20057;-78
2022/04/20 13:14:14;;;;;;;1.77;1.27;;;15.40;48.20;;;;;;5112908;28;20502;-78
2022/04/20 13:16:39;;;;;;;2.38;1.42;;;15.40;48.90;;;;;;5078537;28;20479;-78
2022/04/20 13:19:05;;;;;;;1.75;1.30;;;15.40;49.30;;;;;;5078153;28;20395;-78
2022/04/20 13:21:31;;;;;;;1.50;1.40;;;15.50;49.60;;;;;;5078280;28;20415;-78
2022/04/20 13:23:57;;;;;;;2.45;1.40;;;15.50;49.40;;;;;;5077396;28;20051;-79
2022/04/20 13:29:07;;;;;;;2.38;1.20;;;15.50;50.10;;;;;;5066474;28;20116;-77
2022/04/20 13:31:33;;;;;;;1.75;1.40;;;15.50;50.50;;;;;;5061498;28;20048;-77
2022/04/20 13:33:59;;;;;;;1.73;1.60;;;15.50;50.60;;;;;;5077821;28;20039;-77
2022/04/20 13:36:24;;;;;;;2.75;1.60;;;15.60;50.80;;;;;;5095082;28;20040;-78
2022/04/20 13:38:50;;;;;;;4.00;1.77;;;15.60;50.70;;;;;;5061699;28;20086;-78
2022/04/20 13:41:16;;;;;;;2.17;1.50;;;15.60;50.30;;;;;;5094587;28;20063;-77
2022/04/20 13:43:42;;;;;;;2.65;1.70;;;15.60;50.70;;;;;;5077971;28;20047;-78